Time;durP1;ratioP1;P1;durP2;ratioP2;P2;SDS_P1;SDS_P2;PMS_P1;PMS_P2;Temp;Humidity;BMP_temperature;BMP_pressure;BME280_temperature;BME280_humidity;BME280_pressure;Samples;Min_cycle;Max_cycle;Signal;HPM_P1;HPM_P2
2022/03/21 00:00:38;;;;;;;;;;;7.20;99.90;;;;;;4961268;28;19956;-73
2022/03/21 00:03:04;;;;;;;;;;;7.20;99.90;;;;;;4975956;28;20181;-72
2022/03/21 00:05:30;;;;;;;;;;;7.20;99.90;;;;;;4976027;28;20701;-72
2022/03/21 00:07:56;;;;;;;;;;;7.10;99.90;;;;;;4980981;28;20014;-72
2022/03/21 00:10:22;;;;;;;;;;;7.10;99.90;;;;;;4961613;28;19933;-72
2022/03/21 00:12:49;;;;;;;;;;;7.10;99.90;;;;;;4973964;28;19972;-72
2022/03/21 00:15:15;;;;;;;;;;;7.10;99.90;;;;;;4962018;28;19929;-72
2022/03/21 00:17:41;;;;;;;;;;;7.10;99.90;;;;;;4951066;28;19964;-72
2022/03/21 00:20:10;;;;;;;;;;;7.10;99.90;;;;;;4961460;28;20056;-73
2022/03/21 00:22:37;;;;;;;;;;;7.10;99.90;;;;;;4978207;28;19929;-73
2022/03/21 00:25:06;;;;;;;;;;;7.00;99.90;;;;;;4959821;28;19936;-72
2022/03/21 00:27:32;;;;;;;;;;;7.00;99.90;;;;;;4966587;28;20386;-73
2022/03/21 00:29:58;;;;;;;;;;;7.00;99.90;;;;;;4982290;28;19929;-72
2022/03/21 00:32:24;;;;;;;;;;;7.00;99.90;;;;;;4962625;28;20401;-72
2022/03/21 00:34:49;;;;;;;;;;;7.00;99.90;;;;;;4977792;28;22172;-72
2022/03/21 00:37:15;;;;;;;;;;;7.10;99.90;;;;;;4978715;28;19929;-72
2022/03/21 00:39:41;;;;;;;;;;;7.10;99.90;;;;;;4980478;28;19929;-72
2022/03/21 00:42:09;;;;;;;;;;;7.00;99.90;;;;;;4979760;28;19929;-72
2022/03/21 00:44:34;;;;;;;;;;;7.00;99.90;;;;;;4961077;28;20149;-73
2022/03/21 00:47:00;;;;;;;;;;;6.90;99.90;;;;;;4977920;28;19972;-73
2022/03/21 00:49:26;;;;;;;;;;;7.00;99.90;;;;;;4957932;28;19929;-73
2022/03/21 00:51:51;;;;;;;;;;;7.00;99.90;;;;;;4977888;28;19929;-72
2022/03/21 00:54:17;;;;;;;;;;;7.00;99.90;;;;;;4980827;28;20859;-72
2022/03/21 00:56:42;;;;;;;;;;;6.90;99.90;;;;;;4976602;28;20020;-72
2022/03/21 00:59:08;;;;;;;;;;;6.90;99.90;;;;;;4960019;28;19933;-72
2022/03/21 01:01:34;;;;;;;;;;;6.80;99.90;;;;;;4976185;28;19936;-72
2022/03/21 01:03:59;;;;;;;;;;;6.90;99.90;;;;;;4977633;28;19968;-72
2022/03/21 01:06:25;;;;;;;;;;;6.90;99.90;;;;;;4962035;28;19934;-72
2022/03/21 01:08:50;;;;;;;;;;;7.00;99.90;;;;;;4956542;28;20051;-73
2022/03/21 01:11:16;;;;;;;;;;;7.00;99.90;;;;;;4966377;28;20503;-72
2022/03/21 01:13:42;;;;;;;;;;;7.00;99.90;;;;;;4977722;28;19933;-72
2022/03/21 01:16:08;;;;;;;;;;;7.10;99.90;;;;;;4962342;28;21107;-72
2022/03/21 01:18:34;;;;;;;;;;;7.10;99.90;;;;;;4954750;28;20637;-73
2022/03/21 01:20:59;;;;;;;;;;;7.00;99.90;;;;;;4963877;28;20052;-72
2022/03/21 01:23:25;;;;;;;;;;;6.90;99.90;;;;;;4963906;28;19929;-72
2022/03/21 01:25:51;;;;;;;;;;;6.90;99.90;;;;;;4964583;28;19933;-72
2022/03/21 01:28:16;;;;;;;;;;;7.00;99.90;;;;;;4979225;28;19951;-72
2022/03/21 01:30:42;;;;;;;;;;;6.90;99.90;;;;;;4978592;28;19937;-73
2022/03/21 01:33:07;;;;;;;;;;;6.90;99.90;;;;;;4980324;28;20353;-72
2022/03/21 01:35:33;;;;;;;;;;;6.90;99.90;;;;;;4952047;28;19929;-72
2022/03/21 01:37:59;;;;;;;;;;;6.90;99.90;;;;;;4966981;28;19929;-73
2022/03/21 01:40:28;;;;;;;;;;;6.90;99.90;;;;;;4969714;28;19937;-73
2022/03/21 01:42:53;;;;;;;;;;;6.90;99.90;;;;;;4986565;28;20027;-72
2022/03/21 01:45:19;;;;;;;;;;;6.90;99.90;;;;;;4986741;28;19929;-73
2022/03/21 01:47:46;;;;;;;;;;;6.90;99.90;;;;;;4983052;28;20385;-73
2022/03/21 01:50:12;;;;;;;;;;;6.90;99.90;;;;;;4968914;28;20391;-73
2022/03/21 01:52:38;;;;;;;;;;;7.00;99.90;;;;;;4967922;28;19929;-73
2022/03/21 01:57:50;;;;;;;;;;;6.90;99.90;;;;;;4974054;28;19937;-73
2022/03/21 02:00:15;;;;;;;;;;;7.00;99.90;;;;;;4966850;28;19933;-73
2022/03/21 02:02:42;;;;;;;;;;;7.00;99.90;;;;;;4986150;28;20023;-73
2022/03/21 02:05:08;;;;;;;;;;;7.00;99.90;;;;;;4978775;28;19929;-73
2022/03/21 02:07:34;;;;;;;;;;;7.00;99.90;;;;;;5000699;28;20209;-73
2022/03/21 02:10:02;;;;;;;;;;;7.00;99.90;;;;;;4981558;28;19929;-73
2022/03/21 02:12:29;;;;;;;;;;;7.00;99.90;;;;;;4995469;28;20341;-73
2022/03/21 02:14:54;;;;;;;;;;;7.00;99.90;;;;;;4979845;28;19930;-72
2022/03/21 02:17:22;;;;;;;;;;;7.00;99.90;;;;;;4980331;28;19936;-73
2022/03/21 02:19:48;;;;;;;;;;;7.00;99.90;;;;;;4999353;28;20004;-73
2022/03/21 02:22:23;;;;;;;;;;;7.00;99.90;;;;;;4983344;28;19995;-73
2022/03/21 02:24:54;;;;;;;;;;;7.00;99.90;;;;;;4992229;28;19990;-73
2022/03/21 02:27:21;;;;;;;;;;;7.00;99.90;;;;;;4981404;28;20051;-73
2022/03/21 02:29:47;;;;;;;;;;;7.00;99.90;;;;;;4985254;28;19929;-73
2022/03/21 02:32:13;;;;;;;;;;;6.90;99.90;;;;;;4996643;28;21651;-72
2022/03/21 02:34:39;;;;;;;;;;;6.80;99.90;;;;;;4994154;28;19935;-72
2022/03/21 02:37:06;;;;;;;;;;;6.80;99.90;;;;;;4980403;28;19928;-73
2022/03/21 02:39:32;;;;;;;;;;;6.80;99.90;;;;;;4983620;28;19929;-73
2022/03/21 02:41:58;;;;;;;;;;;6.80;99.90;;;;;;4992833;28;20295;-72
2022/03/21 02:44:23;;;;;;;;;;;6.70;99.90;;;;;;4977808;28;19963;-73
2022/03/21 02:46:49;;;;;;;;;;;6.70;99.90;;;;;;4974723;28;20444;-72
2022/03/21 02:49:15;;;;;;;;;;;6.70;99.90;;;;;;4978558;28;20132;-73
2022/03/21 02:51:41;;;;;;;;;;;6.80;99.90;;;;;;4978576;28;19983;-73
2022/03/21 02:54:07;;;;;;;;;;;6.70;99.90;;;;;;4981205;28;19929;-73
2022/03/21 02:56:33;;;;;;;;;;;6.70;99.90;;;;;;4979056;28;19929;-73
2022/03/21 02:58:58;;;;;;;;;;;6.70;99.90;;;;;;4978812;28;20659;-73
2022/03/21 03:01:25;;;;;;;;;;;6.60;99.90;;;;;;4994925;28;19929;-73
2022/03/21 03:03:51;;;;;;;;;;;6.70;99.90;;;;;;4996234;28;19929;-73
2022/03/21 03:06:17;;;;;;;;;;;6.70;99.90;;;;;;4964882;28;20314;-73
2022/03/21 03:08:43;;;;;;;;;;;6.70;99.90;;;;;;4992946;28;20387;-73
2022/03/21 03:11:09;;;;;;;;;;;6.70;99.90;;;;;;4977186;28;20354;-73
2022/03/21 03:13:34;;;;;;;;;;;6.60;99.90;;;;;;4963825;28;19929;-72
2022/03/21 03:16:00;;;;;;;;;;;6.60;99.90;;;;;;4973790;28;19929;-73
2022/03/21 03:18:26;;;;;;;;;;;6.40;99.90;;;;;;4977256;28;19956;-72
2022/03/21 03:20:52;;;;;;;;;;;6.10;99.90;;;;;;4958821;28;19933;-72
2022/03/21 03:23:18;;;;;;;;;;;5.80;99.90;;;;;;4970022;28;19980;-73
2022/03/21 03:25:45;;;;;;;;;;;5.80;99.90;;;;;;4995484;28;19929;-72
2022/03/21 03:28:11;;;;;;;;;;;5.90;99.90;;;;;;4965668;28;19929;-72
2022/03/21 03:30:37;;;;;;;;;;;6.00;99.90;;;;;;4975558;28;19952;-72
2022/03/21 03:33:02;;;;;;;;;;;5.90;99.90;;;;;;4977386;28;19940;-72
2022/03/21 03:35:28;;;;;;;;;;;6.00;99.90;;;;;;4995090;28;21948;-72
2022/03/21 03:37:53;;;;;;;;;;;6.00;99.90;;;;;;4977306;28;19960;-73
2022/03/21 03:40:19;;;;;;;;;;;5.80;99.90;;;;;;4977514;28;19940;-73
2022/03/21 03:42:46;;;;;;;;;;;5.70;99.90;;;;;;4975238;28;19930;-72
2022/03/21 03:45:13;;;;;;;;;;;5.60;99.90;;;;;;4979397;28;20020;-72
2022/03/21 03:47:39;;;;;;;;;;;5.60;99.90;;;;;;4973994;28;20662;-72
2022/03/21 03:50:05;;;;;;;;;;;5.40;99.90;;;;;;4997680;28;19929;-72
2022/03/21 03:52:31;;;;;;;;;;;5.50;99.90;;;;;;4993123;28;19929;-72
2022/03/21 03:54:56;;;;;;;;;;;5.50;99.90;;;;;;4994270;28;19929;-73
2022/03/21 03:57:22;;;;;;;;;;;5.50;99.90;;;;;;4979162;28;20361;-73
2022/03/21 03:59:48;;;;;;;;;;;5.50;99.90;;;;;;4967313;28;19935;-73
2022/03/21 04:02:13;;;;;;;;;;;5.40;99.90;;;;;;4980677;28;20698;-72
2022/03/21 04:04:39;;;;;;;;;;;5.40;99.90;;;;;;4975849;28;19995;-72
2022/03/21 04:07:04;;;;;;;;;;;5.50;99.90;;;;;;4963882;28;19929;-72
2022/03/21 04:09:30;;;;;;;;;;;5.30;99.90;;;;;;4955037;28;20106;-72
2022/03/21 04:11:56;;;;;;;;;;;5.20;99.90;;;;;;4996418;28;20394;-72
2022/03/21 04:14:22;;;;;;;;;;;5.10;99.90;;;;;;4979777;28;19933;-72
2022/03/21 04:16:48;;;;;;;;;;;5.10;99.90;;;;;;4995298;28;19930;-72
2022/03/21 04:19:14;;;;;;;;;;;5.10;99.90;;;;;;4981481;28;20550;-72
2022/03/21 04:21:40;;;;;;;;;;;5.00;99.90;;;;;;4976747;28;20691;-73
2022/03/21 04:24:06;;;;;;;;;;;5.00;99.90;;;;;;4978459;28;20032;-72
2022/03/21 04:26:31;;;;;;;;;;;4.90;99.90;;;;;;4976538;28;20187;-72
2022/03/21 04:28:57;;;;;;;;;;;5.00;99.90;;;;;;4978544;28;19929;-72
2022/03/21 04:31:23;;;;;;;;;;;4.90;99.90;;;;;;4979016;28;19956;-72
2022/03/21 04:33:49;;;;;;;;;;;4.90;99.90;;;;;;4994570;28;19968;-72
2022/03/21 04:36:15;;;;;;;;;;;4.90;99.90;;;;;;4979191;28;19955;-72
2022/03/21 04:38:41;;;;;;;;;;;4.70;99.90;;;;;;4972407;28;20680;-73
2022/03/21 04:41:07;;;;;;;;;;;4.60;99.90;;;;;;4993798;28;20369;-72
2022/03/21 04:43:32;;;;;;;;;;;4.60;99.90;;;;;;4978216;28;19939;-72
2022/03/21 04:45:58;;;;;;;;;;;4.50;99.90;;;;;;4974651;28;19952;-72
2022/03/21 04:48:24;;;;;;;;;;;4.30;99.90;;;;;;4992894;28;19929;-72
2022/03/21 04:50:51;;;;;;;;;;;4.20;99.90;;;;;;4991257;28;19939;-72
2022/03/21 04:53:17;;;;;;;;;;;4.30;99.90;;;;;;4976615;28;20800;-72
2022/03/21 04:55:42;;;;;;;;;;;4.20;99.90;;;;;;4997743;28;19933;-72
2022/03/21 04:58:08;;;;;;;;;;;4.00;99.90;;;;;;4995153;28;19940;-72
2022/03/21 05:00:35;;;;;;;;;;;3.70;99.90;;;;;;4959336;28;19945;-72
2022/03/21 05:03:04;;;;;;;;;;;3.50;99.90;;;;;;4976536;28;19936;-72
2022/03/21 05:05:30;;;;;;;;;;;3.60;99.90;;;;;;4961351;28;19975;-72
2022/03/21 05:07:55;;;;;;;;;;;3.70;99.90;;;;;;4993410;28;19937;-72
2022/03/21 05:10:22;;;;;;;;;;;3.70;99.90;;;;;;4973463;28;20387;-72
2022/03/21 05:12:48;;;;;;;;;;;3.50;99.90;;;;;;4976947;28;20531;-72
2022/03/21 05:15:13;;;;;;;;;;;3.40;99.90;;;;;;4974365;28;19929;-73
2022/03/21 05:17:39;;;;;;;;;;;3.40;99.90;;;;;;4975221;28;19929;-72
2022/03/21 05:20:38;;;;;;;;;;;3.40;99.90;;;;;;4977442;28;22509;-72
2022/03/21 05:31:10;;;;;;;;;;;3.40;99.90;;;;;;4975178;28;20527;-72
2022/03/21 05:36:25;;;;;;;;;;;3.50;99.90;;;;;;4976229;28;19933;-72
2022/03/21 05:38:50;;;;;;;;;;;3.50;99.90;;;;;;4992714;28;19929;-72
2022/03/21 05:41:16;;;;;;;;;;;3.40;99.90;;;;;;4974144;28;20387;-72
2022/03/21 05:43:42;;;;;;;;;;;3.40;99.90;;;;;;4981376;28;20581;-71
2022/03/21 05:46:07;;;;;;;;;;;3.30;99.90;;;;;;4963036;28;19929;-72
2022/03/21 05:51:19;;;;;;;;;;;3.30;99.90;;;;;;4978147;28;19926;-72
2022/03/21 05:53:45;;;;;;;;;;;3.30;99.90;;;;;;4962545;28;19929;-72
2022/03/21 05:56:11;;;;;;;;;;;3.10;99.90;;;;;;4966520;28;19936;-72
2022/03/21 05:58:37;;;;;;;;;;;3.20;99.90;;;;;;4961933;28;19933;-72
2022/03/21 06:01:03;;;;;;;;;;;3.40;99.90;;;;;;4957494;28;19980;-72
2022/03/21 06:03:29;;;;;;;;;;;3.40;99.90;;;;;;4959918;28;19962;-72
2022/03/21 06:05:59;;;;;;;;;;;3.50;99.90;;;;;;4980552;28;19963;-71
2022/03/21 06:08:25;;;;;;;;;;;3.40;99.90;;;;;;4967420;28;19929;-72
2022/03/21 06:11:03;;;;;;;;;;;3.40;99.90;;;;;;4961439;28;20333;-72
2022/03/21 06:13:35;;;;;;;;;;;3.50;99.90;;;;;;4965102;28;19933;-72
2022/03/21 06:16:03;;;;;;;;;;;3.50;99.90;;;;;;4992209;28;19929;-71
2022/03/21 06:18:29;;;;;;;;;;;3.60;99.90;;;;;;4972288;28;19955;-72
2022/03/21 06:20:55;;;;;;;;;;;3.40;99.90;;;;;;4977689;28;20036;-72
2022/03/21 06:23:20;;;;;;;;;;;3.50;99.90;;;;;;4982730;28;20091;-72
2022/03/21 06:25:46;;;;;;;;;;;3.70;99.90;;;;;;4984500;28;20028;-72
2022/03/21 06:28:12;;;;;;;;;;;4.00;99.90;;;;;;5004229;28;20021;-72
2022/03/21 06:30:37;;;;;;;;;;;4.00;99.90;;;;;;4980692;28;19954;-71
2022/03/21 06:33:03;;;;;;;;;;;4.10;99.90;;;;;;4981539;28;19929;-72
2022/03/21 06:35:28;;;;;;;;;;;4.20;99.90;;;;;;4984352;28;20311;-72
2022/03/21 06:37:54;;;;;;;;;;;4.20;99.90;;;;;;4976256;28;20012;-72
2022/03/21 06:40:20;;;;;;;;;;;4.40;99.90;;;;;;4985969;28;19933;-72
2022/03/21 06:42:46;;;;;;;;;;;4.50;99.90;;;;;;5001509;28;20430;-72
2022/03/21 06:45:11;;;;;;;;;;;4.50;99.90;;;;;;4981389;28;19933;-72
2022/03/21 06:47:37;;;;;;;;;;;4.90;99.90;;;;;;4980921;28;19929;-73
2022/03/21 06:50:03;;;;;;;;;;;4.90;99.90;;;;;;4999822;28;19944;-73
2022/03/21 06:52:29;;;;;;;;;;;5.00;99.90;;;;;;4998240;28;20381;-72
2022/03/21 06:54:55;;;;;;;;;;;5.10;99.90;;;;;;4980199;28;19972;-72
2022/03/21 06:57:21;;;;;;;;;;;5.20;99.90;;;;;;4982879;28;19967;-73
2022/03/21 06:59:47;;;;;;;;;;;5.40;99.90;;;;;;4997965;28;20034;-73
2022/03/21 07:02:14;;;;;;;;;;;5.70;99.90;;;;;;5001220;28;20043;-73
2022/03/21 07:04:40;;;;;;;;;;;5.80;99.90;;;;;;5001532;28;19964;-73
2022/03/21 07:07:05;;;;;;;;;;;5.90;99.90;;;;;;4993871;28;19929;-73
2022/03/21 07:09:31;;;;;;;;;;;6.10;99.90;;;;;;4978308;28;19991;-72
2022/03/21 07:11:57;;;;;;;;;;;6.30;99.90;;;;;;4982402;28;19935;-72
2022/03/21 07:14:22;;;;;;;;;;;6.50;99.90;;;;;;4996415;28;19980;-72
2022/03/21 07:16:48;;;;;;;;;;;6.80;99.90;;;;;;4981598;28;19940;-72
2022/03/21 07:19:14;;;;;;;;;;;7.10;99.90;;;;;;4967489;28;20446;-71
2022/03/21 07:21:40;;;;;;;;;;;7.20;99.90;;;;;;4982637;28;19929;-72
2022/03/21 07:24:06;;;;;;;;;;;7.60;99.90;;;;;;4999540;28;19929;-72
2022/03/21 07:26:32;;;;;;;;;;;7.90;99.90;;;;;;4985684;28;19929;-71
2022/03/21 07:28:58;;;;;;;;;;;8.10;99.90;;;;;;4984679;28;20150;-72
2022/03/21 07:31:23;;;;;;;;;;;8.10;99.90;;;;;;4997135;28;20437;-71
2022/03/21 07:33:49;;;;;;;;;;;8.30;99.90;;;;;;4983630;28;19929;-71
2022/03/21 07:36:15;;;;;;;;;;;8.60;99.90;;;;;;5001346;28;19929;-72
2022/03/21 07:38:41;;;;;;;;;;;8.80;99.90;;;;;;4982509;28;20422;-72
2022/03/21 07:41:07;;;;;;;;;;;8.40;99.90;;;;;;4995160;28;20062;-72
2022/03/21 07:43:33;;;;;;;;;;;8.50;99.90;;;;;;4963138;28;19940;-73
2022/03/21 07:48:44;;;;;;;;;;;8.90;99.90;;;;;;4982059;28;20398;-73
2022/03/21 07:51:10;;;;;;;;;;;8.90;99.90;;;;;;4981956;28;20421;-72
2022/03/21 07:53:36;;;;;;;;;;;8.90;99.90;;;;;;4981403;28;19929;-72
2022/03/21 07:56:01;;;;;;;;;;;9.10;99.90;;;;;;5002007;28;19941;-72
2022/03/21 07:58:27;;;;;;;;;;;9.60;99.90;;;;;;4995789;28;19953;-73
2022/03/21 08:00:53;;;;;;;;;;;9.40;99.90;;;;;;4980786;28;19948;-73
2022/03/21 08:03:19;;;;;;;;;;;9.30;99.90;;;;;;4966655;28;20330;-73
2022/03/21 08:05:45;;;;;;;;;;;9.90;99.90;;;;;;4997931;28;19929;-73
2022/03/21 08:08:11;;;;;;;;;;;9.50;99.90;;;;;;4981201;28;19929;-73
2022/03/21 08:10:36;;;;;;;;;;;10.00;99.90;;;;;;4978539;28;19929;-73
2022/03/21 08:13:02;;;;;;;;;;;10.00;99.90;;;;;;4979033;28;19928;-72
2022/03/21 08:15:28;;;;;;;;;;;10.60;99.90;;;;;;4979153;28;19936;-73
2022/03/21 08:17:56;;;;;;;;;;;10.70;99.90;;;;;;4977577;28;20174;-73
2022/03/21 08:20:22;;;;;;;;;;;10.70;99.90;;;;;;4997509;28;19968;-73
2022/03/21 08:22:48;;;;;;;;;;;10.30;99.90;;;;;;5001512;28;20397;-73
2022/03/21 08:25:18;;;;;;;;;;;10.40;99.90;;;;;;4980056;28;19929;-73
2022/03/21 08:27:44;;;;;;;;;;;10.40;99.90;;;;;;4982431;28;19936;-73
2022/03/21 08:30:13;;;;;;;;;;;10.70;99.90;;;;;;4979891;28;19929;-73
2022/03/21 08:32:39;;;;;;;;;;;10.60;99.90;;;;;;4997839;28;19932;-73
2022/03/21 08:35:05;;;;;;;;;;;10.70;99.90;;;;;;4995998;28;19938;-73
2022/03/21 08:37:30;;;;;;;;;;;10.80;99.90;;;;;;4978706;28;19975;-73
2022/03/21 08:39:56;;;;;;;;;;;11.50;99.90;;;;;;4999403;28;19929;-73
2022/03/21 08:42:21;;;;;;;;;;;11.80;99.90;;;;;;4995334;28;20043;-73
2022/03/21 08:44:47;;;;;;;;;;;11.40;99.90;;;;;;4983230;28;19929;-73
2022/03/21 08:47:13;;;;;;;;;;;11.70;99.90;;;;;;4999944;28;20412;-73
2022/03/21 08:49:38;;;;;;;;;;;12.20;99.90;;;;;;4994622;28;20329;-73
2022/03/21 08:52:06;;;;;;;;;;;12.50;99.90;;;;;;4981651;28;19971;-73
2022/03/21 08:54:32;;;;;;;;;;;12.00;99.90;;;;;;4982887;28;20260;-73
2022/03/21 08:56:58;;;;;;;;;;;12.10;99.90;;;;;;4981118;28;19933;-73
2022/03/21 08:59:24;;;;;;;;;;;12.50;99.90;;;;;;4981804;28;19952;-72
2022/03/21 09:01:50;;;;;;;;;;;11.70;99.90;;;;;;4991814;28;20024;-73
2022/03/21 09:04:16;;;;;;;;;;;12.30;99.90;;;;;;4995096;28;20272;-73
2022/03/21 09:06:42;;;;;;;;;;;12.40;99.90;;;;;;4994199;28;20145;-73
2022/03/21 09:09:08;;;;;;;;;;;11.80;99.90;;;;;;4992198;28;20524;-73
2022/03/21 09:11:35;;;;;;;;;;;11.80;99.90;;;;;;4976081;28;20099;-73
2022/03/21 09:14:02;;;;;;;;;;;12.60;99.90;;;;;;4994318;28;19936;-73
2022/03/21 09:16:28;;;;;;;;;;;13.00;99.90;;;;;;4993395;28;22055;-73
2022/03/21 09:18:54;;;;;;;;;;;13.10;99.90;;;;;;4974541;28;19929;-73
2022/03/21 09:21:19;;;;;;;;;;;12.60;99.90;;;;;;4973140;28;20562;-73
2022/03/21 09:23:45;;;;;;;;;;;12.80;99.90;;;;;;4977038;28;19929;-73
2022/03/21 09:26:11;;;;;;;;;;;13.30;99.90;;;;;;4979234;28;20100;-73
2022/03/21 09:28:39;;;;;;;;;;;13.00;99.90;;;;;;4996096;28;19929;-73
2022/03/21 09:31:07;;;;;;;;;;;12.90;99.90;;;;;;4977062;28;19936;-73
2022/03/21 09:33:33;;;;;;;;;;;13.20;99.90;;;;;;4975484;28;19933;-70
2022/03/21 09:35:59;;;;;;;;;;;13.80;99.90;;;;;;5002652;28;20912;-73
2022/03/21 09:38:25;;;;;;;;;;;13.90;99.90;;;;;;4984210;28;19929;-73
2022/03/21 09:40:50;;;;;;;;;;;14.40;99.90;;;;;;4980266;28;20033;-73
2022/03/21 09:43:17;;;;;;;;;;;14.40;99.90;;;;;;4980145;28;19929;-73
2022/03/21 09:45:42;;;;;;;;;;;14.10;99.90;;;;;;4976659;28;19933;-73
2022/03/21 09:48:08;;;;;;;;;;;14.60;99.90;;;;;;4975933;28;19940;-73
2022/03/21 09:50:35;;;;;;;;;;;14.90;99.90;;;;;;4961658;28;19930;-73
2022/03/21 09:53:02;;;;;;;;;;;14.20;99.90;;;;;;4993610;28;19925;-73
2022/03/21 09:55:27;;;;;;;;;;;14.90;99.90;;;;;;4944958;28;19934;-73
2022/03/21 09:57:53;;;;;;;;;;;15.40;99.90;;;;;;4965122;28;19960;-73
2022/03/21 10:00:19;;;;;;;;;;;15.80;99.90;;;;;;4966323;28;19983;-73
2022/03/21 10:02:44;;;;;;;;;;;15.70;99.90;;;;;;4981145;28;20139;-72
2022/03/21 10:05:29;;;;;;;;;;;15.30;99.90;;;;;;4984986;28;19972;-73
2022/03/21 10:08:08;;;;;;;;;;;15.40;99.90;;;;;;4999187;28;19929;-73
2022/03/21 10:10:34;;;;;;;;;;;15.50;99.90;;;;;;4997943;28;19932;-73
2022/03/21 10:12:59;;;;;;;;;;;15.70;99.90;;;;;;4982465;28;19929;-73
2022/03/21 10:15:28;;;;;;;;;;;15.70;99.90;;;;;;5003425;28;19929;-73
2022/03/21 10:18:10;;;;;;;;;;;15.50;99.90;;;;;;4985292;28;20438;-73
2022/03/21 10:20:36;;;;;;;;;;;15.90;99.90;;;;;;4982395;28;19929;-73
2022/03/21 10:23:14;;;;;;;;;;;15.00;89.80;;;;;;4984469;28;19929;-73
2022/03/21 10:25:40;;;;;;;;;;;15.10;93.30;;;;;;4984240;28;19957;-73
2022/03/21 10:28:05;;;;;;;;;;;15.50;99.90;;;;;;4984819;28;20351;-73
2022/03/21 10:30:31;;;;;;;;;;;15.60;99.90;;;;;;4976189;28;19972;-73
2022/03/21 10:32:58;;;;;;;;;;;15.90;92.90;;;;;;4970040;28;19929;-73
2022/03/21 10:35:28;;;;;;;;;;;15.40;84.40;;;;;;4984645;28;20014;-74
2022/03/21 10:38:01;;;;;;;;;;;15.90;99.90;;;;;;4998111;28;20412;-74
2022/03/21 10:40:26;;;;;;;;;;;16.10;94.50;;;;;;4985524;28;19960;-73
2022/03/21 10:43:06;;;;;;;;;;;15.80;82.00;;;;;;4983634;28;20011;-74
2022/03/21 10:45:34;;;;;;;;;;;16.20;99.90;;;;;;4982391;28;19929;-73
2022/03/21 10:48:00;;;;;;;;;;;16.40;99.90;;;;;;5000068;28;19933;-73
2022/03/21 10:50:36;;;;;;;;;;;16.10;99.90;;;;;;4969771;28;19951;-73
2022/03/21 10:53:03;;;;;;;;;;;16.20;99.90;;;;;;5004483;28;22284;-74
2022/03/21 10:55:28;;;;;;;;;;;16.20;99.90;;;;;;4999595;28;20387;-74
2022/03/21 10:57:54;;;;;;;;;;;16.30;99.90;;;;;;4996575;28;19933;-73
2022/03/21 11:00:21;;;;;;;;;;;16.40;91.00;;;;;;4999919;28;19980;-73
2022/03/21 11:02:50;;;;;;;;;;;16.80;96.30;;;;;;4999608;28;19936;-73
2022/03/21 11:05:16;;;;;;;;;;;16.40;93.20;;;;;;4984331;28;20587;-73
2022/03/21 11:07:42;;;;;;;;;;;16.50;86.70;;;;;;4980536;28;19929;-72
2022/03/21 11:10:07;;;;;;;;;;;16.90;85.70;;;;;;4995383;28;19936;-72
2022/03/21 11:12:34;;;;;;;;;;;16.20;76.00;;;;;;4994526;28;20385;-72
2022/03/21 11:15:01;;;;;;;;;;;15.40;77.70;;;;;;4978721;28;19925;-72
2022/03/21 11:17:27;;;;;;;;;;;15.40;78.30;;;;;;4983689;28;19929;-72
2022/03/21 11:19:52;;;;;;;;;;;15.90;83.10;;;;;;4978163;28;19933;-72
2022/03/21 11:22:18;;;;;;;;;;;15.20;78.00;;;;;;4997046;28;19960;-72
2022/03/21 11:24:44;;;;;;;;;;;14.80;83.20;;;;;;4984603;28;20042;-73
2022/03/21 11:27:33;;;;;;;;;;;15.20;86.80;;;;;;5002007;28;19936;-73
2022/03/21 11:30:01;;;;;;;;;;;16.00;96.20;;;;;;4970118;28;20411;-73
2022/03/21 11:32:27;;;;;;;;;;;16.60;99.30;;;;;;4983959;28;19934;-73
2022/03/21 11:35:06;;;;;;;;;;;16.80;88.00;;;;;;4982448;28;19933;-73
2022/03/21 11:37:32;;;;;;;;;;;15.40;74.00;;;;;;4965721;28;20671;-73
2022/03/21 11:40:17;;;;;;;;;;;15.20;80.90;;;;;;4984075;28;19997;-73
2022/03/21 11:42:42;;;;;;;;;;;16.20;95.10;;;;;;4992257;28;20411;-73
2022/03/21 11:45:29;;;;;;;;;;;16.80;94.50;;;;;;4981104;28;19929;-73
2022/03/21 11:48:13;;;;;;;;;;;16.90;75.50;;;;;;4979508;28;19959;-74
2022/03/21 11:50:39;;;;;;;;;;;16.60;81.20;;;;;;4979904;28;19933;-72
2022/03/21 11:53:06;;;;;;;;;;;17.20;80.90;;;;;;4995448;28;20699;-72
2022/03/21 11:55:36;;;;;;;;;;;17.30;80.10;;;;;;4999049;28;19937;-72
2022/03/21 11:58:20;;;;;;;;;;;17.10;83.70;;;;;;4979090;28;19965;-72
2022/03/21 12:01:01;;;;;;;;;;;17.30;72.40;;;;;;4992931;28;19929;-73
2022/03/21 12:03:27;;;;;;;;;;;16.40;73.00;;;;;;4983533;28;19929;-74
2022/03/21 12:05:53;;;;;;;;;;;17.10;81.30;;;;;;4983469;28;19933;-74
2022/03/21 12:08:30;;;;;;;;;;;17.10;80.90;;;;;;5000528;28;20453;-74
2022/03/21 12:10:56;;;;;;;;;;;17.80;78.40;;;;;;4998498;28;19929;-74
2022/03/21 12:13:22;;;;;;;;;;;18.10;77.90;;;;;;4999550;28;20416;-72
2022/03/21 12:15:51;;;;;;;;;;;16.50;69.20;;;;;;4986310;28;19929;-73
2022/03/21 12:18:19;;;;;;;;;;;16.90;72.80;;;;;;4998116;28;19936;-73
2022/03/21 12:20:46;;;;;;;;;;;15.70;70.20;;;;;;4978042;28;19929;-73
2022/03/21 12:23:16;;;;;;;;;;;16.20;71.00;;;;;;4983086;28;20379;-73
2022/03/21 12:25:42;;;;;;;;;;;16.70;79.90;;;;;;4983485;28;20016;-72
2022/03/21 12:28:21;;;;;;;;;;;17.10;78.80;;;;;;4982983;28;19929;-74
2022/03/21 12:30:49;;;;;;;;;;;17.50;93.70;;;;;;4981090;28;20066;-74
2022/03/21 12:33:15;;;;;;;;;;;17.40;77.10;;;;;;4984734;28;20034;-73
2022/03/21 12:35:45;;;;;;;;;;;18.10;80.50;;;;;;4978021;28;19937;-73
2022/03/21 12:38:14;;;;;;;;;;;17.20;71.40;;;;;;4978934;28;20446;-74
2022/03/21 12:40:46;;;;;;;;;;;18.10;79.40;;;;;;4996436;28;19976;-74
2022/03/21 12:43:12;;;;;;;;;;;17.60;70.90;;;;;;5000493;28;19929;-74
2022/03/21 12:45:38;;;;;;;;;;;16.20;71.50;;;;;;4998377;28;20140;-74
2022/03/21 12:48:05;;;;;;;;;;;16.40;72.10;;;;;;4981633;28;20546;-74
2022/03/21 12:50:32;;;;;;;;;;;16.50;73.30;;;;;;4998637;28;19990;-74
2022/03/21 12:52:59;;;;;;;;;;;16.90;74.40;;;;;;4999182;28;20030;-74
2022/03/21 12:55:25;;;;;;;;;;;17.80;80.70;;;;;;4997529;28;21096;-73
2022/03/21 12:57:54;;;;;;;;;;;16.90;72.00;;;;;;4981469;28;20071;-74
2022/03/21 13:00:21;;;;;;;;;;;17.80;69.10;;;;;;5000067;28;19995;-74
2022/03/21 13:02:47;;;;;;;;;;;16.70;71.10;;;;;;4979289;28;20682;-74
2022/03/21 13:10:43;;;;;;;;;;;17.60;75.90;;;;;;4997037;28;20016;-74
2022/03/21 13:13:08;;;;;;;;;;;17.80;77.00;;;;;;4978999;28;19932;-73
2022/03/21 13:15:35;;;;;;;;;;;18.00;73.30;;;;;;4994114;28;19929;-74
2022/03/21 13:18:03;;;;;;;;;;;18.10;72.20;;;;;;4978522;28;19960;-74
2022/03/21 13:20:33;;;;;;;;;;;17.20;70.00;;;;;;4978823;28;19937;-74
2022/03/21 13:23:00;;;;;;;;;;;17.40;70.80;;;;;;4982348;28;19933;-74
2022/03/21 13:25:27;;;;;;;;;;;16.70;73.80;;;;;;4999288;28;20573;-74
2022/03/21 13:28:12;;;;;;;;;;;17.20;81.40;;;;;;4983035;28;20033;-74
2022/03/21 13:30:50;;;;;;;;;;;16.80;74.00;;;;;;4999763;28;20298;-74
2022/03/21 13:33:23;;;;;;;;;;;17.80;72.90;;;;;;4980385;28;20024;-73
2022/03/21 13:35:52;;;;;;;;;;;17.90;78.00;;;;;;4997447;28;19976;-74
2022/03/21 13:38:20;;;;;;;;;;;18.00;80.70;;;;;;4981265;28;19969;-73
2022/03/21 13:40:46;;;;;;;;;;;18.00;68.40;;;;;;4975407;28;21548;-73
2022/03/21 13:43:18;;;;;;;;;;;17.90;73.00;;;;;;4996031;28;19933;-74
2022/03/21 13:45:44;;;;;;;;;;;18.10;73.40;;;;;;4967152;28;19929;-74
2022/03/21 13:48:10;;;;;;;;;;;18.20;68.30;;;;;;4982290;28;20896;-73
2022/03/21 13:50:39;;;;;;;;;;;16.80;69.00;;;;;;4972233;28;19952;-74
2022/03/21 13:53:24;;;;;;;;;;;17.80;77.00;;;;;;4957744;28;19936;-73
2022/03/21 13:55:51;;;;;;;;;;;18.10;75.90;;;;;;4965871;28;20023;-74
2022/03/21 13:58:23;;;;;;;;;;;18.20;71.90;;;;;;4985647;28;19991;-74
2022/03/21 14:00:50;;;;;;;;;;;18.10;67.60;;;;;;4960949;28;19930;-74
2022/03/21 14:03:35;;;;;;;;;;;18.10;72.30;;;;;;4980377;28;20030;-74
2022/03/21 14:06:03;;;;;;;;;;;18.20;75.00;;;;;;4982264;28;20402;-74
2022/03/21 14:08:28;;;;;;;;;;;18.30;74.10;;;;;;4985038;28;20015;-74
2022/03/21 14:11:04;;;;;;;;;;;18.40;66.20;;;;;;4986946;28;19929;-74
2022/03/21 14:13:32;;;;;;;;;;;18.60;70.80;;;;;;4977505;28;19933;-74
2022/03/21 14:15:58;;;;;;;;;;;18.70;70.50;;;;;;4914090;28;1842903;-74
2022/03/21 14:18:25;;;;;;;;;;;18.60;70.40;;;;;;5001856;28;19929;-74
2022/03/21 14:20:51;;;;;;;;;;;18.70;70.60;;;;;;4964724;28;19932;-74
2022/03/21 14:23:17;;;;;;;;;;;18.30;65.20;;;;;;4982107;28;20426;-74
2022/03/21 14:28:27;;;;;;;;;;;18.50;70.00;;;;;;4970669;28;20337;-75
2022/03/21 14:30:52;;;;;;;;;;;18.30;70.50;;;;;;4964574;28;19944;-75
2022/03/21 14:33:18;;;;;;;;;;;18.80;71.20;;;;;;4996845;28;20060;-74
2022/03/21 14:35:43;;;;;;;;;;;18.70;69.90;;;;;;4995990;28;20369;-74
2022/03/21 14:38:09;;;;;;;;;;;18.50;69.10;;;;;;4997741;28;19968;-74
2022/03/21 14:40:36;;;;;;;;;;;18.70;68.70;;;;;;4984130;28;19933;-74
2022/03/21 14:43:02;;;;;;;;;;;18.90;66.90;;;;;;4986456;28;19929;-74
2022/03/21 14:45:27;;;;;;;;;;;18.70;70.70;;;;;;5004459;28;19929;-74
2022/03/21 14:47:53;;;;;;;;;;;18.70;69.30;;;;;;4986685;28;19940;-74
2022/03/21 14:50:19;;;;;;;;;;;18.60;69.80;;;;;;4985011;28;19936;-74